sensor_id;sensor_type;location;lat;lon;timestamp;pressure;altitude;pressure_sealevel;temperature;humidity
80678;BME280;70042;52.494;5.502;2024-01-07T00:01:11;102014.50;;;15.81;60.74
80678;BME280;70042;52.494;5.502;2024-01-07T00:03:36;102025.03;;;15.83;60.47
80678;BME280;70042;52.494;5.502;2024-01-07T00:06:02;102025.03;;;15.83;60.85
80678;BME280;70042;52.494;5.502;2024-01-07T00:08:27;102032.94;;;15.83;60.91
80678;BME280;70042;52.494;5.502;2024-01-07T00:10:53;102034.69;;;15.82;60.33
80678;BME280;70042;52.494;5.502;2024-01-07T00:13:18;102044.38;;;15.82;60.78
80678;BME280;70042;52.494;5.502;2024-01-07T00:15:44;102038.22;;;15.81;60.33
80678;BME280;70042;52.494;5.502;2024-01-07T00:18:09;102047.88;;;15.81;60.61
80678;BME280;70042;52.494;5.502;2024-01-07T00:20:34;102048.75;;;15.80;60.35
80678;BME280;70042;52.494;5.502;2024-01-07T00:23:00;102048.75;;;15.80;60.85
80678;BME280;70042;52.494;5.502;2024-01-07T00:25:26;102050.50;;;15.81;60.52
80678;BME280;70042;52.494;5.502;2024-01-07T00:27:51;102053.16;;;15.81;60.90
80678;BME280;70042;52.494;5.502;2024-01-07T00:30:20;102052.25;;;15.80;60.51
80678;BME280;70042;52.494;5.502;2024-01-07T00:32:46;102059.28;;;15.80;60.22
80678;BME280;70042;52.494;5.502;2024-01-07T00:35:11;102063.69;;;15.81;60.82
80678;BME280;70042;52.494;5.502;2024-01-07T00:37:37;102060.19;;;15.79;60.73
80678;BME280;70042;52.494;5.502;2024-01-07T00:40:04;102057.56;;;15.79;60.36
80678;BME280;70042;52.494;5.502;2024-01-07T00:42:29;102058.41;;;15.79;60.75
80678;BME280;70042;52.494;5.502;2024-01-07T00:44:55;102063.66;;;15.79;60.71
80678;BME280;70042;52.494;5.502;2024-01-07T00:47:20;102060.19;;;15.79;60.93
80678;BME280;70042;52.494;5.502;2024-01-07T00:49:46;102069.84;;;15.78;60.36
80678;BME280;70042;52.494;5.502;2024-01-07T00:52:11;102068.94;;;15.76;60.78
80678;BME280;70042;52.494;5.502;2024-01-07T00:54:36;102076.84;;;15.79;60.50
80678;BME280;70042;52.494;5.502;2024-01-07T00:57:02;102078.63;;;15.79;60.42
80678;BME280;70042;52.494;5.502;2024-01-07T00:59:28;102080.38;;;15.78;60.76
80678;BME280;70042;52.494;5.502;2024-01-07T01:01:55;102076.84;;;15.78;60.49
80678;BME280;70042;52.494;5.502;2024-01-07T01:04:21;102084.75;;;15.78;60.58
80678;BME280;70042;52.494;5.502;2024-01-07T01:06:46;102083.91;;;15.79;60.57
80678;BME280;70042;52.494;5.502;2024-01-07T01:09:12;102089.16;;;15.79;60.39
80678;BME280;70042;52.494;5.502;2024-01-07T01:11:37;102094.44;;;15.79;60.47
80678;BME280;70042;52.494;5.502;2024-01-07T01:14:03;102081.25;;;15.77;60.46
80678;BME280;70042;52.494;5.502;2024-01-07T01:16:28;102086.50;;;15.77;60.51
80678;BME280;70042;52.494;5.502;2024-01-07T01:18:54;102097.06;;;15.77;60.26
80678;BME280;70042;52.494;5.502;2024-01-07T01:21:19;102090.03;;;15.79;60.29
80678;BME280;70042;52.494;5.502;2024-01-07T01:23:46;102091.81;;;15.79;60.35
80678;BME280;70042;52.494;5.502;2024-01-07T01:26:11;102088.25;;;15.77;60.31
80678;BME280;70042;52.494;5.502;2024-01-07T01:28:37;102096.19;;;15.78;60.70
80678;BME280;70042;52.494;5.502;2024-01-07T01:31:02;102097.06;;;15.77;60.47
80678;BME280;70042;52.494;5.502;2024-01-07T01:33:28;102097.06;;;15.77;60.41
80678;BME280;70042;52.494;5.502;2024-01-07T01:35:53;102097.94;;;15.78;60.35
80678;BME280;70042;52.494;5.502;2024-01-07T01:38:18;102105.84;;;15.78;60.48
80678;BME280;70042;52.494;5.502;2024-01-07T01:40:51;102107.63;;;15.79;60.32
80678;BME280;70042;52.494;5.502;2024-01-07T01:43:22;102112.88;;;15.79;60.41
80678;BME280;70042;52.494;5.502;2024-01-07T01:45:48;102115.50;;;15.77;60.57
80678;BME280;70042;52.494;5.502;2024-01-07T01:48:13;102119.88;;;15.77;60.42
80678;BME280;70042;52.494;5.502;2024-01-07T01:50:39;102119.00;;;15.76;60.95
80678;BME280;70042;52.494;5.502;2024-01-07T01:53:04;102130.44;;;15.75;60.78
80678;BME280;70042;52.494;5.502;2024-01-07T01:55:30;102137.44;;;15.76;60.32
80678;BME280;70042;52.494;5.502;2024-01-07T01:57:56;102131.28;;;15.76;60.37
80678;BME280;70042;52.494;5.502;2024-01-07T02:00:25;102137.47;;;15.75;60.15
80678;BME280;70042;52.494;5.502;2024-01-07T02:02:50;102134.81;;;15.76;60.59
80678;BME280;70042;52.494;5.502;2024-01-07T02:05:16;102139.19;;;15.76;60.17
80678;BME280;70042;52.494;5.502;2024-01-07T02:07:41;102142.72;;;15.76;60.55
80678;BME280;70042;52.494;5.502;2024-01-07T02:10:07;102148.00;;;15.75;60.57
80678;BME280;70042;52.494;5.502;2024-01-07T02:12:33;102145.34;;;15.76;60.75
80678;BME280;70042;52.494;5.502;2024-01-07T02:14:58;102148.00;;;15.75;60.48
80678;BME280;70042;52.494;5.502;2024-01-07T02:17:23;102140.97;;;15.74;60.56
80678;BME280;70042;52.494;5.502;2024-01-07T02:19:49;102153.28;;;15.75;60.54
80678;BME280;70042;52.494;5.502;2024-01-07T02:22:14;102157.66;;;15.74;60.93
80678;BME280;70042;52.494;5.502;2024-01-07T02:24:40;102156.75;;;15.74;60.61
80678;BME280;70042;52.494;5.502;2024-01-07T02:27:05;102155.88;;;15.73;60.54
80678;BME280;70042;52.494;5.502;2024-01-07T02:29:31;102162.03;;;15.74;60.28
80678;BME280;70042;52.494;5.502;2024-01-07T02:31:56;102158.53;;;15.72;60.21
80678;BME280;70042;52.494;5.502;2024-01-07T02:34:21;102165.53;;;15.73;60.66
80678;BME280;70042;52.494;5.502;2024-01-07T02:36:47;102165.53;;;15.73;60.10
80678;BME280;70042;52.494;5.502;2024-01-07T02:39:12;102162.03;;;15.74;60.07
80678;BME280;70042;52.494;5.502;2024-01-07T02:41:38;102167.31;;;15.74;60.70
80678;BME280;70042;52.494;5.502;2024-01-07T02:44:03;102164.69;;;15.75;60.30
80678;BME280;70042;52.494;5.502;2024-01-07T02:46:30;102179.59;;;15.73;60.25
80678;BME280;70042;52.494;5.502;2024-01-07T02:48:56;102179.59;;;15.72;60.34
80678;BME280;70042;52.494;5.502;2024-01-07T02:51:21;102187.50;;;15.72;60.73
80678;BME280;70042;52.494;5.502;2024-01-07T02:53:47;102179.59;;;15.72;60.66
80678;BME280;70042;52.494;5.502;2024-01-07T02:56:12;102177.84;;;15.71;60.27
80678;BME280;70042;52.494;5.502;2024-01-07T02:58:38;102178.72;;;15.71;61.09
80678;BME280;70042;52.494;5.502;2024-01-07T03:01:08;102186.63;;;15.71;60.42
80678;BME280;70042;52.494;5.502;2024-01-07T03:03:34;102185.75;;;15.71;60.07
80678;BME280;70042;52.494;5.502;2024-01-07T03:06:00;102184.00;;;15.71;60.67
80678;BME280;70042;52.494;5.502;2024-01-07T03:08:25;102184.88;;;15.72;60.00
80678;BME280;70042;52.494;5.502;2024-01-07T03:10:51;102191.88;;;15.73;60.56
80678;BME280;70042;52.494;5.502;2024-01-07T03:13:16;102186.63;;;15.73;60.50
80678;BME280;70042;52.494;5.502;2024-01-07T03:15:41;102191.03;;;15.72;60.31
80678;BME280;70042;52.494;5.502;2024-01-07T03:18:07;102186.63;;;15.73;59.94
80678;BME280;70042;52.494;5.502;2024-01-07T03:20:33;102184.88;;;15.72;60.49
80678;BME280;70042;52.494;5.502;2024-01-07T03:23:00;102195.41;;;15.70;60.77
80678;BME280;70042;52.494;5.502;2024-01-07T03:25:26;102192.75;;;15.70;60.52
80678;BME280;70042;52.494;5.502;2024-01-07T03:27:51;102193.66;;;15.71;60.25
80678;BME280;70042;52.494;5.502;2024-01-07T03:30:16;102204.19;;;15.69;60.44
80678;BME280;70042;52.494;5.502;2024-01-07T03:32:42;102200.66;;;15.69;60.33
80678;BME280;70042;52.494;5.502;2024-01-07T03:35:07;102195.41;;;15.69;60.69
80678;BME280;70042;52.494;5.502;2024-01-07T03:37:35;102205.03;;;15.70;60.35
80678;BME280;70042;52.494;5.502;2024-01-07T03:40:01;102209.44;;;15.71;60.58
80678;BME280;70042;52.494;5.502;2024-01-07T03:42:27;102209.44;;;15.71;60.48
80678;BME280;70042;52.494;5.502;2024-01-07T03:44:53;102209.44;;;15.71;60.19
80678;BME280;70042;52.494;5.502;2024-01-07T03:47:18;102215.59;;;15.71;60.47
80678;BME280;70042;52.494;5.502;2024-01-07T03:49:43;102209.44;;;15.71;60.33
80678;BME280;70042;52.494;5.502;2024-01-07T03:52:09;102218.22;;;15.70;60.38
80678;BME280;70042;52.494;5.502;2024-01-07T03:54:34;102221.75;;;15.69;60.34
80678;BME280;70042;52.494;5.502;2024-01-07T03:57:00;102226.13;;;15.68;60.45
80678;BME280;70042;52.494;5.502;2024-01-07T03:59:25;102230.50;;;15.68;60.21
80678;BME280;70042;52.494;5.502;2024-01-07T04:01:56;102226.09;;;15.67;60.75
80678;BME280;70042;52.494;5.502;2024-01-07T04:04:22;102227.00;;;15.66;60.64
80678;BME280;70042;52.494;5.502;2024-01-07T04:06:48;102240.19;;;15.66;60.48
80678;BME280;70042;52.494;5.502;2024-01-07T04:09:14;102234.91;;;15.67;60.53
80678;BME280;70042;52.494;5.502;2024-01-07T04:11:40;102233.16;;;15.68;60.47
80678;BME280;70042;52.494;5.502;2024-01-07T04:14:06;102246.31;;;15.68;60.49
80678;BME280;70042;52.494;5.502;2024-01-07T04:16:31;102248.09;;;15.69;59.88
80678;BME280;70042;52.494;5.502;2024-01-07T04:18:57;102246.31;;;15.68;60.31
80678;BME280;70042;52.494;5.502;2024-01-07T04:21:22;102245.44;;;15.66;61.03
80678;BME280;70042;52.494;5.502;2024-01-07T04:23:48;102261.25;;;15.66;60.66
80678;BME280;70042;52.494;5.502;2024-01-07T04:26:13;102251.56;;;15.65;60.44
80678;BME280;70042;52.494;5.502;2024-01-07T04:28:41;102255.97;;;15.64;60.25
80678;BME280;70042;52.494;5.502;2024-01-07T04:31:07;102258.59;;;15.63;60.42
80678;BME280;70042;52.494;5.502;2024-01-07T04:33:32;102265.63;;;15.64;60.52
80678;BME280;70042;52.494;5.502;2024-01-07T04:35:58;102260.34;;;15.64;60.60
80678;BME280;70042;52.494;5.502;2024-01-07T04:38:24;102270.03;;;15.65;60.14
80678;BME280;70042;52.494;5.502;2024-01-07T04:40:50;102274.41;;;15.63;60.69
80678;BME280;70042;52.494;5.502;2024-01-07T04:43:17;102267.38;;;15.62;60.51
80678;BME280;70042;52.494;5.502;2024-01-07T04:45:43;102278.78;;;15.64;60.54
80678;BME280;70042;52.494;5.502;2024-01-07T04:48:08;102280.53;;;15.63;60.23
80678;BME280;70042;52.494;5.502;2024-01-07T04:50:33;102288.47;;;15.65;60.15
80678;BME280;70042;52.494;5.502;2024-01-07T04:52:59;102288.47;;;15.65;60.59
80678;BME280;70042;52.494;5.502;2024-01-07T04:55:24;102288.47;;;15.65;60.67
80678;BME280;70042;52.494;5.502;2024-01-07T04:57:50;102298.13;;;15.64;60.25
80678;BME280;70042;52.494;5.502;2024-01-07T05:00:16;102298.13;;;15.64;60.26
80678;BME280;70042;52.494;5.502;2024-01-07T05:02:41;102311.28;;;15.64;60.67
80678;BME280;70042;52.494;5.502;2024-01-07T05:05:10;102313.03;;;15.64;60.65
80678;BME280;70042;52.494;5.502;2024-01-07T05:07:35;102313.03;;;15.64;60.57
80678;BME280;70042;52.494;5.502;2024-01-07T05:10:02;102317.44;;;15.65;60.32
80678;BME280;70042;52.494;5.502;2024-01-07T05:12:28;102317.47;;;15.66;60.51
80678;BME280;70042;52.494;5.502;2024-01-07T05:14:53;102321.84;;;15.66;60.18
80678;BME280;70042;52.494;5.502;2024-01-07T05:17:19;102327.13;;;15.67;60.01
80678;BME280;70042;52.494;5.502;2024-01-07T05:19:44;102323.59;;;15.67;60.63
80678;BME280;70042;52.494;5.502;2024-01-07T05:22:10;102328.88;;;15.67;60.39
80678;BME280;70042;52.494;5.502;2024-01-07T05:24:38;102335.03;;;15.66;60.42
80678;BME280;70042;52.494;5.502;2024-01-07T05:27:04;102347.31;;;15.65;60.35
80678;BME280;70042;52.494;5.502;2024-01-07T05:29:31;102344.66;;;15.64;60.22
80678;BME280;70042;52.494;5.502;2024-01-07T05:31:58;102344.66;;;15.64;60.57
80678;BME280;70042;52.494;5.502;2024-01-07T05:34:26;102346.41;;;15.62;60.20
80678;BME280;70042;52.494;5.502;2024-01-07T05:36:51;102354.31;;;15.62;60.76
80678;BME280;70042;52.494;5.502;2024-01-07T05:39:16;102355.16;;;15.61;60.19
80678;BME280;70042;52.494;5.502;2024-01-07T05:41:42;102366.59;;;15.61;60.44
80678;BME280;70042;52.494;5.502;2024-01-07T05:44:07;102360.44;;;15.61;60.29
80678;BME280;70042;52.494;5.502;2024-01-07T05:46:33;102367.47;;;15.62;60.70
80678;BME280;70042;52.494;5.502;2024-01-07T05:48:59;102372.75;;;15.62;60.09
80678;BME280;70042;52.494;5.502;2024-01-07T05:51:24;102374.53;;;15.63;59.91
80678;BME280;70042;52.494;5.502;2024-01-07T05:53:50;102366.63;;;15.63;60.17
80678;BME280;70042;52.494;5.502;2024-01-07T05:56:15;102368.38;;;15.62;60.54
80678;BME280;70042;52.494;5.502;2024-01-07T05:58:40;102372.75;;;15.62;60.27
80678;BME280;70042;52.494;5.502;2024-01-07T06:01:07;102373.59;;;15.61;60.45
80678;BME280;70042;52.494;5.502;2024-01-07T06:03:33;102377.13;;;15.60;60.27
80678;BME280;70042;52.494;5.502;2024-01-07T06:05:59;102385.00;;;15.58;60.30
80678;BME280;70042;52.494;5.502;2024-01-07T06:08:28;102392.03;;;15.58;60.10
80678;BME280;70042;52.494;5.502;2024-01-07T06:10:53;102401.69;;;15.57;60.24
80678;BME280;70042;52.494;5.502;2024-01-07T06:13:19;102402.56;;;15.58;60.14
80678;BME280;70042;52.494;5.502;2024-01-07T06:15:44;102411.38;;;15.60;60.37
80678;BME280;70042;52.494;5.502;2024-01-07T06:18:10;102410.50;;;15.59;60.55
80678;BME280;70042;52.494;5.502;2024-01-07T06:20:35;102414.03;;;15.60;60.46
80678;BME280;70042;52.494;5.502;2024-01-07T06:23:01;102412.28;;;15.62;59.97
80678;BME280;70042;52.494;5.502;2024-01-07T06:25:26;102414.03;;;15.61;60.64
80678;BME280;70042;52.494;5.502;2024-01-07T06:27:52;102427.19;;;15.60;60.33
80678;BME280;70042;52.494;5.502;2024-01-07T06:30:17;102429.81;;;15.58;60.47
80678;BME280;70042;52.494;5.502;2024-01-07T06:32:44;102428.03;;;15.57;60.21
80678;BME280;70042;52.494;5.502;2024-01-07T06:35:11;102438.56;;;15.57;60.73
80678;BME280;70042;52.494;5.502;2024-01-07T06:37:36;102440.34;;;15.57;60.34
80678;BME280;70042;52.494;5.502;2024-01-07T06:40:02;102448.25;;;15.57;60.49
80678;BME280;70042;52.494;5.502;2024-01-07T06:42:27;102440.34;;;15.57;60.61
80678;BME280;70042;52.494;5.502;2024-01-07T06:44:53;102449.13;;;15.59;60.77
80678;BME280;70042;52.494;5.502;2024-01-07T06:47:18;102451.75;;;15.59;60.66
80678;BME280;70042;52.494;5.502;2024-01-07T06:49:44;102457.91;;;15.59;60.19
80678;BME280;70042;52.494;5.502;2024-01-07T06:52:10;102458.81;;;15.60;60.33
80678;BME280;70042;52.494;5.502;2024-01-07T06:54:36;102461.44;;;15.60;60.10
80678;BME280;70042;52.494;5.502;2024-01-07T06:57:01;102470.22;;;15.62;60.14
80678;BME280;70042;52.494;5.502;2024-01-07T06:59:27;102466.72;;;15.60;60.15
80678;BME280;70042;52.494;5.502;2024-01-07T07:01:53;102465.78;;;15.58;60.30
80678;BME280;70042;52.494;5.502;2024-01-07T07:04:20;102472.81;;;15.57;60.42
80678;BME280;70042;52.494;5.502;2024-01-07T07:06:47;102471.06;;;15.58;60.28
80678;BME280;70042;52.494;5.502;2024-01-07T07:09:12;102472.81;;;15.56;60.23
80678;BME280;70042;52.494;5.502;2024-01-07T07:11:38;102470.16;;;15.57;60.07
80678;BME280;70042;52.494;5.502;2024-01-07T07:14:03;102480.72;;;15.57;60.22
80678;BME280;70042;52.494;5.502;2024-01-07T07:16:29;102492.13;;;15.58;60.29
80678;BME280;70042;52.494;5.502;2024-01-07T07:18:54;102502.69;;;15.58;60.44
80678;BME280;70042;52.494;5.502;2024-01-07T07:21:20;102512.31;;;15.57;59.92
80678;BME280;70042;52.494;5.502;2024-01-07T07:23:45;102503.56;;;15.58;60.28
80678;BME280;70042;52.494;5.502;2024-01-07T07:26:10;102507.94;;;15.58;60.12
80678;BME280;70042;52.494;5.502;2024-01-07T07:28:36;102517.63;;;15.59;60.44
80678;BME280;70042;52.494;5.502;2024-01-07T07:31:02;102520.25;;;15.59;59.77
80678;BME280;70042;52.494;5.502;2024-01-07T07:33:27;102520.25;;;15.59;60.11
80678;BME280;70042;52.494;5.502;2024-01-07T07:35:53;102524.63;;;15.58;60.26
80678;BME280;70042;52.494;5.502;2024-01-07T07:38:18;102527.28;;;15.57;60.28
80678;BME280;70042;52.494;5.502;2024-01-07T07:40:43;102532.53;;;15.57;59.91
80678;BME280;70042;52.494;5.502;2024-01-07T07:43:10;102532.53;;;15.57;60.00
80678;BME280;70042;52.494;5.502;2024-01-07T07:45:35;102541.31;;;15.56;59.86
80678;BME280;70042;52.494;5.502;2024-01-07T07:48:01;102543.94;;;15.56;60.38
80678;BME280;70042;52.494;5.502;2024-01-07T07:50:26;102546.56;;;15.56;60.35
80678;BME280;70042;52.494;5.502;2024-01-07T07:52:52;102550.09;;;15.56;60.44
80678;BME280;70042;52.494;5.502;2024-01-07T07:55:18;102561.53;;;15.57;60.07
80678;BME280;70042;52.494;5.502;2024-01-07T07:57:44;102560.63;;;15.58;60.06
80678;BME280;70042;52.494;5.502;2024-01-07T08:00:10;102566.78;;;15.57;60.19
80678;BME280;70042;52.494;5.502;2024-01-07T08:02:38;102565.91;;;15.58;60.23
80678;BME280;70042;52.494;5.502;2024-01-07T08:05:04;102569.44;;;15.57;60.37
80678;BME280;70042;52.494;5.502;2024-01-07T08:07:29;102574.69;;;15.57;60.16
80678;BME280;70042;52.494;5.502;2024-01-07T08:09:55;102580.81;;;15.56;59.90
80678;BME280;70042;52.494;5.502;2024-01-07T08:12:23;102581.69;;;15.55;60.22
80678;BME280;70042;52.494;5.502;2024-01-07T08:14:48;102598.38;;;15.55;60.45
80678;BME280;70042;52.494;5.502;2024-01-07T08:17:13;102597.47;;;15.55;60.34
80678;BME280;70042;52.494;5.502;2024-01-07T08:19:39;102598.38;;;15.55;60.15
80678;BME280;70042;52.494;5.502;2024-01-07T08:22:04;102604.53;;;15.56;60.46
80678;BME280;70042;52.494;5.502;2024-01-07T08:24:30;102607.16;;;15.56;60.28
80678;BME280;70042;52.494;5.502;2024-01-07T08:26:55;102601.91;;;15.56;60.29
80678;BME280;70042;52.494;5.502;2024-01-07T08:29:21;102602.75;;;15.55;59.76
80678;BME280;70042;52.494;5.502;2024-01-07T08:31:46;102609.81;;;15.56;60.45
80678;BME280;70042;52.494;5.502;2024-01-07T08:34:12;102608.03;;;15.55;59.91
80678;BME280;70042;52.494;5.502;2024-01-07T08:36:37;102621.19;;;15.55;60.14
80678;BME280;70042;52.494;5.502;2024-01-07T08:39:03;102612.41;;;15.54;59.92
80678;BME280;70042;52.494;5.502;2024-01-07T08:41:29;102615.03;;;15.54;60.06
80678;BME280;70042;52.494;5.502;2024-01-07T08:43:54;102617.66;;;15.53;60.42
80678;BME280;70042;52.494;5.502;2024-01-07T08:46:20;102615.03;;;15.53;60.24
80678;BME280;70042;52.494;5.502;2024-01-07T08:48:46;102620.28;;;15.51;60.22
80678;BME280;70042;52.494;5.502;2024-01-07T08:51:12;102625.56;;;15.53;60.20
80678;BME280;70042;52.494;5.502;2024-01-07T08:53:37;102637.00;;;15.53;60.32
80678;BME280;70042;52.494;5.502;2024-01-07T08:56:03;102643.16;;;15.54;60.10
80678;BME280;70042;52.494;5.502;2024-01-07T08:58:29;102649.28;;;15.53;60.17
80678;BME280;70042;52.494;5.502;2024-01-07T09:00:54;102657.19;;;15.53;60.29
80678;BME280;70042;52.494;5.502;2024-01-07T09:03:20;102665.09;;;15.53;60.52
80678;BME280;70042;52.494;5.502;2024-01-07T09:05:45;102662.44;;;15.53;60.25
80678;BME280;70042;52.494;5.502;2024-01-07T09:08:11;102663.31;;;15.52;60.17
80678;BME280;70042;52.494;5.502;2024-01-07T09:10:39;102664.19;;;15.52;60.60
80678;BME280;70042;52.494;5.502;2024-01-07T09:13:05;102665.94;;;15.52;59.92
80678;BME280;70042;52.494;5.502;2024-01-07T09:15:31;102673.84;;;15.52;59.96
80678;BME280;70042;52.494;5.502;2024-01-07T09:17:56;102677.38;;;15.51;60.30
80678;BME280;70042;52.494;5.502;2024-01-07T09:20:22;102680.00;;;15.51;60.08
80678;BME280;70042;52.494;5.502;2024-01-07T09:22:47;102677.38;;;15.51;59.95
80678;BME280;70042;52.494;5.502;2024-01-07T09:25:13;102686.13;;;15.51;60.42
80678;BME280;70042;52.494;5.502;2024-01-07T09:27:45;102687.00;;;15.52;60.09
80678;BME280;70042;52.494;5.502;2024-01-07T09:30:14;102691.44;;;15.54;59.79
80678;BME280;70042;52.494;5.502;2024-01-07T09:32:41;102694.06;;;15.54;59.64
80678;BME280;70042;52.494;5.502;2024-01-07T09:35:12;102694.09;;;15.56;60.02
80678;BME280;70042;52.494;5.502;2024-01-07T09:37:38;102698.47;;;15.54;60.16
80678;BME280;70042;52.494;5.502;2024-01-07T09:40:04;102711.66;;;15.54;59.95
80678;BME280;70042;52.494;5.502;2024-01-07T09:42:31;102705.50;;;15.53;59.92
80678;BME280;70042;52.494;5.502;2024-01-07T09:44:57;102711.66;;;15.54;59.69
80678;BME280;70042;52.494;5.502;2024-01-07T09:47:24;102712.50;;;15.53;59.95
80678;BME280;70042;52.494;5.502;2024-01-07T09:49:50;102718.63;;;15.52;60.29
80678;BME280;70042;52.494;5.502;2024-01-07T09:52:15;102720.41;;;15.53;59.96
80678;BME280;70042;52.494;5.502;2024-01-07T09:54:46;102736.22;;;15.53;60.17
80678;BME280;70042;52.494;5.502;2024-01-07T09:57:13;102731.84;;;15.53;60.55
80678;BME280;70042;52.494;5.502;2024-01-07T09:59:38;102732.72;;;15.54;59.80
80678;BME280;70042;52.494;5.502;2024-01-07T10:02:04;102738.00;;;15.54;59.70
80678;BME280;70042;52.494;5.502;2024-01-07T10:04:30;102748.53;;;15.54;60.00
80678;BME280;70042;52.494;5.502;2024-01-07T10:06:57;102754.66;;;15.54;59.75
80678;BME280;70042;52.494;5.502;2024-01-07T10:09:23;102746.75;;;15.54;60.06
80678;BME280;70042;52.494;5.502;2024-01-07T10:11:50;102743.28;;;15.54;60.10
80678;BME280;70042;52.494;5.502;2024-01-07T10:14:16;102757.28;;;15.53;60.03
80678;BME280;70042;52.494;5.502;2024-01-07T10:16:41;102757.28;;;15.53;59.93
80678;BME280;70042;52.494;5.502;2024-01-07T10:19:07;102766.06;;;15.52;59.84
80678;BME280;70042;52.494;5.502;2024-01-07T10:21:33;102769.56;;;15.51;60.08
80678;BME280;70042;52.494;5.502;2024-01-07T10:26:35;102787.13;;;15.52;60.31
80678;BME280;70042;52.494;5.502;2024-01-07T10:29:00;102781.91;;;15.53;60.01
80678;BME280;70042;52.494;5.502;2024-01-07T10:31:26;102779.25;;;15.53;60.45
80678;BME280;70042;52.494;5.502;2024-01-07T10:33:52;102785.44;;;15.55;60.53
80678;BME280;70042;52.494;5.502;2024-01-07T10:36:18;102783.69;;;15.56;60.16
80678;BME280;70042;52.494;5.502;2024-01-07T10:38:45;102781.03;;;15.56;60.33
80678;BME280;70042;52.494;5.502;2024-01-07T10:41:11;102784.53;;;15.55;60.33
80678;BME280;70042;52.494;5.502;2024-01-07T10:43:37;102789.78;;;15.53;60.54
80678;BME280;70042;52.494;5.502;2024-01-07T10:46:04;102787.16;;;15.53;60.76
80678;BME280;70042;52.494;5.502;2024-01-07T10:48:37;102787.13;;;15.52;59.96
80678;BME280;70042;52.494;5.502;2024-01-07T10:51:03;102788.00;;;15.51;60.24
80678;BME280;70042;52.494;5.502;2024-01-07T10:53:33;102788.00;;;15.51;59.84
80678;BME280;70042;52.494;5.502;2024-01-07T10:56:03;102797.66;;;15.52;59.98
80678;BME280;70042;52.494;5.502;2024-01-07T10:58:32;102799.41;;;15.51;60.45
80678;BME280;70042;52.494;5.502;2024-01-07T11:00:58;102802.94;;;15.52;60.25
80678;BME280;70042;52.494;5.502;2024-01-07T11:03:36;102808.19;;;15.52;60.38
80678;BME280;70042;52.494;5.502;2024-01-07T11:06:09;102809.13;;;15.54;60.41
80678;BME280;70042;52.494;5.502;2024-01-07T11:08:54;102817.88;;;15.54;60.56
80678;BME280;70042;52.494;5.502;2024-01-07T11:11:26;102818.78;;;15.55;60.28
80678;BME280;70042;52.494;5.502;2024-01-07T11:13:52;102810.88;;;15.55;60.15
80678;BME280;70042;52.494;5.502;2024-01-07T11:16:43;102806.50;;;15.55;60.45
80678;BME280;70042;52.494;5.502;2024-01-07T11:19:15;102802.97;;;15.55;60.81
80678;BME280;70042;52.494;5.502;2024-01-07T11:21:45;102807.34;;;15.54;60.48
80678;BME280;70042;52.494;5.502;2024-01-07T11:24:37;102807.34;;;15.53;60.08
80678;BME280;70042;52.494;5.502;2024-01-07T11:27:03;102815.25;;;15.53;60.07
80678;BME280;70042;52.494;5.502;2024-01-07T11:29:31;102812.63;;;15.54;60.13
80678;BME280;70042;52.494;5.502;2024-01-07T11:31:57;102816.19;;;15.56;60.64
80678;BME280;70042;52.494;5.502;2024-01-07T11:34:41;102804.75;;;15.56;60.15
80678;BME280;70042;52.494;5.502;2024-01-07T11:37:13;102806.53;;;15.57;60.18
80678;BME280;70042;52.494;5.502;2024-01-07T11:39:42;102799.50;;;15.56;60.33
80678;BME280;70042;52.494;5.502;2024-01-07T11:42:08;102808.28;;;15.58;60.26
80678;BME280;70042;52.494;5.502;2024-01-07T11:44:34;102810.03;;;15.56;60.89
80678;BME280;70042;52.494;5.502;2024-01-07T11:47:03;102814.41;;;15.55;60.48
80678;BME280;70042;52.494;5.502;2024-01-07T11:49:28;102814.34;;;15.52;60.81
80678;BME280;70042;52.494;5.502;2024-01-07T11:51:54;102816.09;;;15.52;60.42
80678;BME280;70042;52.494;5.502;2024-01-07T11:54:19;102807.34;;;15.53;60.39
80678;BME280;70042;52.494;5.502;2024-01-07T11:56:45;102804.72;;;15.53;60.59
80678;BME280;70042;52.494;5.502;2024-01-07T11:59:10;102804.72;;;15.53;60.46
80678;BME280;70042;52.494;5.502;2024-01-07T12:01:35;102815.28;;;15.56;60.53
80678;BME280;70042;52.494;5.502;2024-01-07T12:04:01;102815.28;;;15.56;59.99
80678;BME280;70042;52.494;5.502;2024-01-07T12:06:26;102819.66;;;15.55;60.81
80678;BME280;70042;52.494;5.502;2024-01-07T12:08:52;102824.94;;;15.55;60.15
80678;BME280;70042;52.494;5.502;2024-01-07T12:11:18;102820.56;;;15.56;60.44
80678;BME280;70042;52.494;5.502;2024-01-07T12:13:44;102825.84;;;15.56;60.23
80678;BME280;70042;52.494;5.502;2024-01-07T12:16:10;102818.78;;;15.55;60.35
80678;BME280;70042;52.494;5.502;2024-01-07T12:18:37;102822.31;;;15.54;60.35
80678;BME280;70042;52.494;5.502;2024-01-07T12:21:03;102822.31;;;15.54;60.88
80678;BME280;70042;52.494;5.502;2024-01-07T12:23:34;102813.50;;;15.55;60.87
80678;BME280;70042;52.494;5.502;2024-01-07T12:26:10;102822.31;;;15.54;60.69
80678;BME280;70042;52.494;5.502;2024-01-07T12:31:17;102820.53;;;15.53;60.53
80678;BME280;70042;52.494;5.502;2024-01-07T12:33:42;102825.78;;;15.53;60.79
80678;BME280;70042;52.494;5.502;2024-01-07T12:36:07;102824.94;;;15.54;60.38
80678;BME280;70042;52.494;5.502;2024-01-07T12:38:36;102828.44;;;15.54;60.15
80678;BME280;70042;52.494;5.502;2024-01-07T12:41:02;102822.31;;;15.54;60.44
80678;BME280;70042;52.494;5.502;2024-01-07T12:43:28;102829.31;;;15.55;60.18
80678;BME280;70042;52.494;5.502;2024-01-07T12:45:53;102832.84;;;15.54;60.10
80678;BME280;70042;52.494;5.502;2024-01-07T12:48:20;102831.09;;;15.56;60.26
80678;BME280;70042;52.494;5.502;2024-01-07T12:50:46;102834.59;;;15.55;60.38